createdAt,value
2018-11-11T00:01:29.777Z,2.30
2018-11-11T00:04:02.192Z,2.33
2018-11-11T00:06:34.845Z,2.17
2018-11-11T00:09:07.585Z,2.20
2018-11-11T00:11:40.003Z,2.87
2018-11-11T00:14:12.480Z,2.37
2018-11-11T00:16:45.151Z,2.50
2018-11-11T00:19:17.790Z,2.37
2018-11-11T00:21:50.607Z,2.47
2018-11-11T00:24:22.876Z,2.50
2018-11-11T00:26:55.560Z,2.57
2018-11-11T00:29:28.235Z,2.20
2018-11-11T00:32:00.652Z,2.40
2018-11-11T00:34:33.345Z,2.20
2018-11-11T00:37:06.273Z,2.60
2018-11-11T00:39:38.708Z,2.40
2018-11-11T00:42:18.816Z,2.23
2018-11-11T00:44:51.226Z,2.27
2018-11-11T00:47:23.938Z,2.27
2018-11-11T00:49:56.340Z,2.30
2018-11-11T00:52:29.093Z,2.70
2018-11-11T00:55:01.572Z,2.10
2018-11-11T00:57:34.564Z,2.27
2018-11-11T01:00:09.783Z,2.00
2018-11-11T01:02:42.202Z,2.20
2018-11-11T01:05:14.656Z,2.47
2018-11-11T01:07:47.116Z,2.20
2018-11-11T01:10:19.754Z,2.00
2018-11-11T01:12:52.207Z,2.47
2018-11-11T01:15:24.616Z,2.30
2018-11-11T01:17:57.036Z,2.20
2018-11-11T01:20:29.454Z,2.50
2018-11-11T01:23:02.148Z,2.60
2018-11-11T01:25:34.811Z,2.63
2018-11-11T01:28:07.250Z,2.60
2018-11-11T01:30:39.902Z,2.17
2018-11-11T01:33:12.328Z,2.20
2018-11-11T01:35:45.055Z,2.60
2018-11-11T01:38:17.714Z,2.37
2018-11-11T01:40:50.126Z,2.00
2018-11-11T01:43:23.166Z,1.90
2018-11-11T01:45:55.790Z,2.50
2018-11-11T01:48:28.545Z,2.53
2018-11-11T01:51:01.290Z,2.27
2018-11-11T01:53:33.721Z,2.07
2018-11-11T01:56:06.170Z,2.00
2018-11-11T01:58:38.593Z,2.20
2018-11-11T02:01:11.010Z,2.10
2018-11-11T02:03:44.106Z,2.37
2018-11-11T02:06:16.781Z,2.10
2018-11-11T02:08:49.226Z,1.93
2018-11-11T02:11:21.934Z,2.20
2018-11-11T02:13:54.362Z,2.27
2018-11-11T02:16:26.775Z,1.80
2018-11-11T02:18:59.206Z,2.03
2018-11-11T02:21:31.638Z,2.10
2018-11-11T02:24:04.504Z,1.80
2018-11-11T02:26:36.910Z,2.00
2018-11-11T02:29:09.564Z,1.93
2018-11-11T02:31:41.969Z,1.83
2018-11-11T02:34:14.714Z,2.30
2018-11-11T02:36:47.138Z,1.77
2018-11-11T02:39:19.588Z,1.90
2018-11-11T02:41:52.006Z,2.00
2018-11-11T02:44:24.689Z,2.00
2018-11-11T02:46:57.106Z,1.87
2018-11-11T02:49:29.842Z,2.10
2018-11-11T02:52:02.514Z,2.10
2018-11-11T02:54:34.946Z,2.00
2018-11-11T02:57:07.590Z,1.97
2018-11-11T02:59:40.367Z,1.70
2018-11-11T03:02:12.787Z,2.10
2018-11-11T03:04:45.830Z,2.40
2018-11-11T03:07:18.259Z,2.27
2018-11-11T03:09:50.694Z,2.10
2018-11-11T03:12:23.106Z,2.20
2018-11-11T03:14:56.175Z,1.90
2018-11-11T03:17:28.586Z,1.90
2018-11-11T03:20:01.290Z,2.10
2018-11-11T03:22:34.030Z,2.10
2018-11-11T03:25:07.547Z,1.67
2018-11-11T03:27:40.207Z,1.87
2018-11-11T03:30:12.641Z,1.97
2018-11-11T03:32:45.306Z,2.00
2018-11-11T03:35:18.079Z,2.07
2018-11-11T03:37:50.490Z,2.10
2018-11-11T03:40:23.230Z,2.00
2018-11-11T03:42:55.638Z,1.90
2018-11-11T03:45:28.074Z,1.97
2018-11-11T03:48:00.492Z,1.80
2018-11-11T03:50:33.206Z,2.00
2018-11-11T03:53:05.625Z,1.87
2018-11-11T03:55:38.067Z,2.40
2018-11-11T03:58:10.470Z,2.23
2018-11-11T04:00:42.899Z,2.10
2018-11-11T04:03:15.357Z,2.10
2018-11-11T04:05:48.074Z,1.90
2018-11-11T04:08:21.122Z,1.50
2018-11-11T04:10:53.819Z,1.80
2018-11-11T04:13:26.483Z,1.87
2018-11-11T04:15:58.930Z,1.73
2018-11-11T04:18:31.335Z,1.60
2018-11-11T04:21:03.885Z,2.00
2018-11-11T04:23:36.293Z,1.50
2018-11-11T04:26:08.726Z,1.80
2018-11-11T04:28:41.462Z,2.00
2018-11-11T04:31:14.149Z,1.90
2018-11-11T04:33:46.551Z,1.80
2018-11-11T04:36:18.982Z,1.90
2018-11-11T04:38:51.387Z,1.93
2018-11-11T04:41:23.827Z,1.83
2018-11-11T04:43:56.462Z,1.60
2018-11-11T04:46:29.187Z,2.40
2018-11-11T04:49:01.835Z,1.70
2018-11-11T04:51:34.274Z,2.00
2018-11-11T04:54:06.987Z,1.60
2018-11-11T04:56:40.113Z,1.80
2018-11-11T04:59:12.518Z,1.80
2018-11-11T05:01:45.262Z,1.90
2018-11-11T05:04:17.711Z,1.50
2018-11-11T05:06:50.415Z,1.70
2018-11-11T05:09:23.155Z,1.93
2018-11-11T05:11:55.607Z,1.87
2018-11-11T05:14:28.028Z,2.10
2018-11-11T05:17:00.810Z,1.70
2018-11-11T05:19:33.562Z,2.20
2018-11-11T05:22:06.006Z,2.03
2018-11-11T05:24:38.442Z,2.03
2018-11-11T05:27:10.885Z,1.80
2018-11-11T05:29:43.319Z,1.73
2018-11-11T05:32:15.755Z,1.90
2018-11-11T05:34:48.511Z,1.80
2018-11-11T05:37:21.235Z,1.60
2018-11-11T05:39:53.711Z,1.93
2018-11-11T05:42:26.453Z,2.23
2018-11-11T05:44:58.870Z,1.70
2018-11-11T05:47:31.311Z,1.57
2018-11-11T05:50:03.890Z,1.93
2018-11-11T05:52:36.566Z,1.90
2018-11-11T05:55:09.231Z,2.00
2018-11-11T05:57:41.670Z,1.60
2018-11-11T06:00:14.365Z,2.20
2018-11-11T06:02:46.794Z,1.80
2018-11-11T06:05:19.466Z,2.10
2018-11-11T06:07:51.886Z,1.80
2018-11-11T06:10:24.293Z,2.13
2018-11-11T06:12:57.892Z,1.63
2018-11-11T06:15:30.290Z,1.97
2018-11-11T06:18:03.033Z,1.73
2018-11-11T06:20:35.451Z,2.03
2018-11-11T06:23:07.873Z,1.67
2018-11-11T06:25:40.559Z,1.90
2018-11-11T06:28:12.978Z,1.87
2018-11-11T06:30:45.396Z,1.97
2018-11-11T06:33:18.106Z,1.80
2018-11-11T06:35:51.403Z,2.13
2018-11-11T06:38:23.826Z,1.87
2018-11-11T06:40:56.254Z,2.10
2018-11-11T06:43:28.674Z,2.20
2018-11-11T06:46:01.106Z,1.70
2018-11-11T06:48:33.530Z,1.80
2018-11-11T06:51:06.210Z,1.47
2018-11-11T06:53:38.634Z,2.10
2018-11-11T06:56:11.040Z,1.93
2018-11-11T06:58:43.472Z,2.07
2018-11-11T07:01:16.516Z,2.33
2018-11-11T07:03:50.226Z,1.70
2018-11-11T07:06:22.893Z,1.93
2018-11-11T07:08:55.319Z,1.80
2018-11-11T07:11:27.733Z,2.00
2018-11-11T07:14:00.193Z,1.70
2018-11-11T07:16:32.583Z,1.77
2018-11-11T07:19:05.262Z,1.90
2018-11-11T07:21:37.937Z,1.97
2018-11-11T07:24:10.650Z,2.30
2018-11-11T07:26:43.048Z,1.90
2018-11-11T07:29:15.481Z,2.10
2018-11-11T07:31:48.157Z,1.80
2018-11-11T07:34:20.843Z,1.57
2018-11-11T07:36:53.502Z,1.60
2018-11-11T07:39:25.925Z,1.70
2018-11-11T07:41:58.686Z,1.87
2018-11-11T07:44:31.127Z,1.70
2018-11-11T07:47:04.150Z,2.07
2018-11-11T07:49:36.839Z,1.90
2018-11-11T07:52:09.720Z,1.57
2018-11-11T07:54:42.011Z,1.73
2018-11-11T07:57:14.413Z,1.50
2018-11-11T07:59:46.845Z,1.60
2018-11-11T08:02:19.334Z,1.47
2018-11-11T08:04:51.698Z,1.40
2018-11-11T08:07:24.109Z,1.67
2018-11-11T08:09:56.765Z,1.77
2018-11-11T08:12:29.190Z,1.60
2018-11-11T08:15:01.853Z,1.40
2018-11-11T08:17:34.474Z,1.50
2018-11-11T08:20:06.899Z,1.60
2018-11-11T08:22:39.568Z,1.30
2018-11-11T08:25:12.334Z,1.33
2018-11-11T08:27:44.694Z,1.60
2018-11-11T08:30:17.127Z,1.33
2018-11-11T08:32:49.534Z,1.30
2018-11-11T08:35:21.971Z,1.40
2018-11-11T08:37:54.386Z,1.30
2018-11-11T08:40:27.138Z,1.63
2018-11-11T08:42:59.805Z,1.60
2018-11-11T08:45:32.568Z,1.30
2018-11-11T08:48:05.019Z,1.43
2018-11-11T08:50:37.453Z,1.20
2018-11-11T08:53:09.874Z,1.27
2018-11-11T08:55:42.889Z,1.30
2018-11-11T08:58:21.226Z,1.30
2018-11-11T09:00:54.002Z,1.20
2018-11-11T09:03:26.544Z,1.40
2018-11-11T09:05:58.982Z,1.30
2018-11-11T09:08:31.406Z,1.40
2018-11-11T09:11:04.288Z,1.27
2018-11-11T09:13:37.037Z,1.50
2018-11-11T09:16:09.454Z,1.50
2018-11-11T09:18:41.880Z,1.50
2018-11-11T09:21:14.323Z,1.50
2018-11-11T09:23:46.764Z,1.20
2018-11-11T09:26:19.175Z,1.73
2018-11-11T09:28:58.270Z,1.47
2018-11-11T09:31:30.663Z,1.63
2018-11-11T09:34:03.079Z,1.20
2018-11-11T09:36:35.514Z,1.30
2018-11-11T09:39:08.118Z,1.27
2018-11-11T09:41:40.817Z,1.40
2018-11-11T09:44:13.237Z,1.27
2018-11-11T09:46:45.879Z,1.20
2018-11-11T09:49:18.310Z,1.30
2018-11-11T09:51:50.737Z,1.30
2018-11-11T09:54:23.143Z,1.37
2018-11-11T09:56:55.570Z,1.27
2018-11-11T09:59:28.049Z,1.17
2018-11-11T10:02:00.809Z,1.40
2018-11-11T10:04:33.248Z,1.17
2018-11-11T10:07:05.753Z,1.37
2018-11-11T10:09:38.970Z,1.47
2018-11-11T10:12:11.454Z,1.10
2018-11-11T10:14:43.829Z,1.33
2018-11-11T10:17:16.245Z,1.30
2018-11-11T10:19:48.665Z,1.67
2018-11-11T10:22:21.414Z,1.50
2018-11-11T10:24:54.102Z,1.50
2018-11-11T10:27:26.665Z,1.27
2018-11-11T10:29:58.978Z,1.40
2018-11-11T10:33:39.994Z,1.47
2018-11-11T10:36:12.326Z,1.47
2018-11-11T10:38:44.763Z,1.23
2018-11-11T10:41:17.221Z,1.20
2018-11-11T10:43:49.650Z,1.43
2018-11-11T10:46:22.314Z,1.20
2018-11-11T10:48:55.066Z,1.60
2018-11-11T10:51:27.470Z,1.77
2018-11-11T10:53:59.885Z,1.30
2018-11-11T10:56:32.293Z,1.40
2018-11-11T10:59:04.730Z,1.90
2018-11-11T11:01:37.138Z,1.60
2018-11-11T11:04:09.577Z,1.57
2018-11-11T11:06:41.994Z,1.60
2018-11-11T11:09:14.417Z,1.40
2018-11-11T11:11:46.835Z,1.30
2018-11-11T11:14:19.258Z,1.83
2018-11-11T11:16:51.955Z,1.60
2018-11-11T11:19:24.373Z,1.70
2018-11-11T11:21:56.802Z,1.90
2018-11-11T11:24:29.228Z,1.83
2018-11-11T11:27:01.708Z,1.43
2018-11-11T11:29:34.127Z,1.43
2018-11-11T11:32:06.632Z,1.93
2018-11-11T11:34:38.982Z,1.60
2018-11-11T11:37:11.386Z,1.77
2018-11-11T11:39:43.829Z,1.60
2018-11-11T11:42:16.536Z,1.30
2018-11-11T11:44:49.546Z,1.90
2018-11-11T11:47:22.555Z,1.50
2018-11-11T11:49:55.016Z,1.80
2018-11-11T11:52:27.427Z,2.20
2018-11-11T11:54:59.842Z,1.80
2018-11-11T11:57:32.263Z,1.77
2018-11-11T12:00:06.723Z,1.80
2018-11-11T12:02:39.248Z,2.07
2018-11-11T12:05:11.750Z,1.47
2018-11-11T12:07:44.106Z,1.70
2018-11-11T12:10:16.543Z,1.57
2018-11-11T12:12:48.955Z,1.80
2018-11-11T12:15:21.382Z,2.00
2018-11-11T12:17:53.883Z,1.83
2018-11-11T12:20:26.326Z,1.90
2018-11-11T12:22:59.007Z,1.90
2018-11-11T12:25:31.421Z,1.97
2018-11-11T12:28:04.257Z,1.53
2018-11-11T12:30:36.775Z,1.90
2018-11-11T12:33:09.167Z,1.83
2018-11-11T12:35:41.562Z,2.30
2018-11-11T12:38:14.546Z,2.00
2018-11-11T12:40:47.004Z,2.00
2018-11-11T12:43:19.482Z,1.90
2018-11-11T12:45:52.008Z,1.87
2018-11-11T12:48:24.414Z,1.60
2018-11-11T12:50:56.871Z,1.60
2018-11-11T12:53:29.311Z,2.10
2018-11-11T12:56:01.848Z,1.80
2018-11-11T12:58:34.368Z,1.90
2018-11-11T13:01:07.097Z,1.80
2018-11-11T13:03:39.514Z,1.60
2018-11-11T13:06:11.946Z,1.57
2018-11-11T13:08:44.346Z,1.97
2018-11-11T13:11:17.061Z,1.80
2018-11-11T13:13:49.474Z,1.70
2018-11-11T13:16:22.140Z,1.90
2018-11-11T13:18:54.794Z,2.03
2018-11-11T13:21:27.226Z,2.10
2018-11-11T13:23:59.889Z,2.20
2018-11-11T13:26:32.302Z,1.80
2018-11-11T13:29:04.714Z,2.57
2018-11-11T13:31:37.155Z,2.07
2018-11-11T13:34:09.554Z,1.80
2018-11-11T13:36:42.251Z,2.00
2018-11-11T13:39:14.662Z,1.80
2018-11-11T13:41:47.087Z,1.97
2018-11-11T13:44:19.739Z,2.30
2018-11-11T13:46:52.220Z,2.30
2018-11-11T13:49:24.604Z,2.60
2018-11-11T13:52:04.140Z,2.93
2018-11-11T13:54:36.915Z,2.90
2018-11-11T13:57:09.335Z,2.90
2018-11-11T13:59:42.003Z,2.93
2018-11-11T14:02:14.424Z,2.07
2018-11-11T14:04:47.110Z,2.20
2018-11-11T14:07:19.535Z,2.60
2018-11-11T14:09:51.952Z,2.53
2018-11-11T14:12:24.648Z,2.10
2018-11-11T14:14:57.053Z,2.33
2018-11-11T14:17:29.483Z,2.33
2018-11-11T14:20:02.203Z,2.43
2018-11-11T14:22:36.929Z,2.57
2018-11-11T14:25:11.001Z,3.00
2018-11-11T14:27:43.704Z,2.47
2018-11-11T14:30:16.367Z,2.70
2018-11-11T14:32:48.887Z,2.90
2018-11-11T14:35:21.549Z,2.77
2018-11-11T14:37:54.314Z,2.97
2018-11-11T14:40:26.728Z,2.70
2018-11-11T14:42:59.142Z,2.23
2018-11-11T14:45:31.574Z,2.70
2018-11-11T14:48:04.014Z,2.43
2018-11-11T14:50:36.441Z,2.30
2018-11-11T14:53:08.867Z,2.53
2018-11-11T14:55:41.278Z,2.47
2018-11-11T14:58:14.015Z,3.10
2018-11-11T15:00:46.415Z,2.60
2018-11-11T15:03:18.846Z,2.50
2018-11-11T15:05:51.263Z,2.77
2018-11-11T15:08:23.691Z,2.57
2018-11-11T15:10:56.350Z,2.53
2018-11-11T15:13:28.776Z,2.30
2018-11-11T15:16:01.588Z,2.50
2018-11-11T15:18:33.951Z,2.57
2018-11-11T15:21:06.802Z,2.33
2018-11-11T15:23:39.076Z,2.80
2018-11-11T15:26:11.483Z,2.90
2018-11-11T15:28:43.917Z,2.50
2018-11-11T15:31:16.428Z,2.80
2018-11-11T15:33:48.771Z,2.70
2018-11-11T15:36:21.182Z,3.17
2018-11-11T15:38:53.609Z,2.93
2018-11-11T15:41:26.345Z,3.17
2018-11-11T15:43:58.790Z,3.57
2018-11-11T15:46:31.202Z,3.20
2018-11-11T15:49:03.618Z,3.10
2018-11-11T15:51:36.046Z,3.70
2018-11-11T15:54:08.470Z,3.03
2018-11-11T15:56:41.505Z,3.33
2018-11-11T15:59:14.084Z,3.10
2018-11-11T16:01:46.362Z,3.00
2018-11-11T16:04:18.817Z,3.00
2018-11-11T16:06:51.514Z,3.43
2018-11-11T16:09:23.943Z,3.00
2018-11-11T16:11:56.355Z,3.07
2018-11-11T16:14:29.031Z,2.70
2018-11-11T16:17:01.435Z,2.77
2018-11-11T16:19:34.160Z,2.90
2018-11-11T16:22:06.786Z,2.50
2018-11-11T16:24:39.220Z,2.70
2018-11-11T16:27:11.905Z,3.03
2018-11-11T16:29:44.388Z,3.17
2018-11-11T16:32:17.164Z,3.20
2018-11-11T16:34:49.530Z,2.90
2018-11-11T16:37:22.076Z,2.80
2018-11-11T16:39:54.791Z,2.40
2018-11-11T16:42:27.197Z,2.60
2018-11-11T16:44:59.663Z,2.50
2018-11-11T16:47:32.318Z,2.23
2018-11-11T16:50:08.279Z,2.53
2018-11-11T16:52:41.062Z,2.70
2018-11-11T16:55:13.571Z,2.92
2018-11-11T16:57:46.195Z,2.50
2018-11-11T17:00:18.623Z,2.70
2018-11-11T17:02:51.061Z,2.23
2018-11-11T17:05:23.734Z,2.30
2018-11-11T17:07:56.407Z,2.40
2018-11-11T17:10:28.850Z,3.00
2018-11-11T17:13:01.270Z,3.13
2018-11-11T17:15:33.687Z,2.90
2018-11-11T17:18:06.109Z,3.17
2018-11-11T17:20:38.640Z,3.17
2018-11-11T17:23:10.940Z,3.00
2018-11-11T17:25:43.362Z,3.00
2018-11-11T17:28:16.231Z,2.93
2018-11-11T17:30:48.647Z,2.73
2018-11-11T17:33:21.342Z,2.43
2018-11-11T17:35:54.040Z,2.70
2018-11-11T17:38:26.727Z,2.27
2018-11-11T17:40:59.157Z,2.70
2018-11-11T17:43:31.607Z,2.97
2018-11-11T17:46:04.226Z,4.03
2018-11-11T17:48:36.680Z,2.63
2018-11-11T17:51:09.094Z,2.00
2018-11-11T17:53:41.684Z,2.50
2018-11-11T17:56:14.110Z,2.60
2018-11-11T17:58:46.546Z,2.00
2018-11-11T18:01:18.960Z,1.90
2018-11-11T18:03:51.658Z,1.60
2018-11-11T18:06:24.062Z,1.70
2018-11-11T18:08:56.482Z,1.93
2018-11-11T18:11:28.889Z,1.90
2018-11-11T18:14:01.745Z,1.87
2018-11-11T18:16:34.074Z,2.27
2018-11-11T18:19:06.503Z,1.80
2018-11-11T18:21:39.311Z,1.50
2018-11-11T18:24:11.723Z,2.00
2018-11-11T18:26:44.179Z,1.97
2018-11-11T18:29:16.982Z,2.10
2018-11-11T18:31:49.682Z,2.37
2018-11-11T18:34:22.466Z,1.90
2018-11-11T18:36:54.838Z,2.20
2018-11-11T18:39:28.059Z,2.03
2018-11-11T18:42:01.786Z,1.83
2018-11-11T18:44:34.518Z,1.57
2018-11-11T18:47:07.042Z,1.90
2018-11-11T18:49:39.479Z,1.77
2018-11-11T18:52:11.957Z,1.83
2018-11-11T18:54:44.579Z,1.43
2018-11-11T18:57:17.476Z,2.17
2018-11-11T18:59:49.774Z,2.07
2018-11-11T19:02:22.203Z,2.10
2018-11-11T19:04:55.227Z,2.90
2018-11-11T19:07:27.671Z,3.20
2018-11-11T19:10:00.199Z,2.43
2018-11-11T19:12:32.887Z,2.50
2018-11-11T19:15:06.875Z,2.07
2018-11-11T19:17:39.348Z,2.63
2018-11-11T19:20:11.891Z,2.43
2018-11-11T19:22:44.406Z,2.30
2018-11-11T19:25:17.136Z,2.40
2018-11-11T19:27:49.593Z,2.67
2018-11-11T19:30:22.129Z,2.60
2018-11-11T19:32:54.827Z,2.47
2018-11-11T19:35:27.258Z,2.40
2018-11-11T19:37:59.674Z,2.60
2018-11-11T19:40:32.106Z,2.53
2018-11-11T19:43:04.535Z,2.57
2018-11-11T19:45:36.969Z,2.20
2018-11-11T19:48:09.382Z,2.27
2018-11-11T19:50:41.821Z,2.10
2018-11-11T19:53:14.234Z,2.40
2018-11-11T19:55:46.637Z,1.80
2018-11-11T19:58:19.048Z,2.10
2018-11-11T20:00:51.742Z,2.37
2018-11-11T20:03:24.470Z,2.30
2018-11-11T20:05:56.928Z,2.57
2018-11-11T20:08:29.325Z,2.67
2018-11-11T20:11:01.746Z,2.63
2018-11-11T20:13:34.150Z,2.50
2018-11-11T20:16:06.582Z,3.60
2018-11-11T20:18:39.148Z,2.73
